Time;durP1;ratioP1;P1;durP2;ratioP2;P2;SDS_P1;SDS_P2;PMS_P1;PMS_P2;Temp;Humidity;BMP_temperature;BMP_pressure;BME280_temperature;BME280_humidity;BME280_pressure;Samples;Min_cycle;Max_cycle;Signal;HPM_P1;HPM_P2
2023/11/12 00:00:45;;;;;;;8.93;4.72;;;6.50;99.90;;;;;;5053721;28;20090;-61
2023/11/12 00:03:12;;;;;;;5.18;4.43;;;6.60;99.90;;;;;;5046135;28;20029;-60
2023/11/12 00:05:40;;;;;;;6.13;5.53;;;6.60;99.90;;;;;;5052201;28;20507;-64
2023/11/12 00:08:07;;;;;;;5.18;4.25;;;6.60;99.90;;;;;;5049821;28;20041;-64
2023/11/12 00:10:34;;;;;;;6.82;5.53;;;6.70;99.90;;;;;;5050573;28;20028;-61
2023/11/12 00:13:01;;;;;;;8.30;5.95;;;6.70;99.90;;;;;;5049989;28;20090;-61
2023/11/12 00:15:28;;;;;;;11.50;5.85;;;6.80;99.90;;;;;;5052802;28;20128;-61
2023/11/12 00:17:55;;;;;;;9.80;5.13;;;6.80;99.90;;;;;;5049850;28;20048;-62
2023/11/12 00:20:24;;;;;;;7.18;4.75;;;6.80;99.90;;;;;;5047032;28;20044;-60
2023/11/12 00:22:53;;;;;;;6.13;5.53;;;6.80;99.90;;;;;;5052876;28;20052;-61
2023/11/12 00:25:20;;;;;;;7.65;5.97;;;6.80;99.90;;;;;;5052786;28;20446;-60
2023/11/12 00:27:47;;;;;;;4.68;4.05;;;6.90;99.90;;;;;;5052216;28;20053;-63
2023/11/12 00:30:15;;;;;;;8.27;4.85;;;6.90;99.90;;;;;;5038745;28;20060;-65
2023/11/12 00:32:43;;;;;;;10.07;4.95;;;6.90;99.90;;;;;;5033539;28;20048;-59
2023/11/12 00:35:12;;;;;;;11.77;5.93;;;7.00;99.90;;;;;;5058590;28;20040;-60
2023/11/12 00:37:39;;;;;;;6.22;4.85;;;7.00;99.90;;;;;;5052216;28;20046;-60
2023/11/12 00:40:07;;;;;;;7.93;5.00;;;7.00;99.90;;;;;;5055616;28;20059;-59
2023/11/12 00:42:34;;;;;;;10.27;6.10;;;7.00;99.90;;;;;;5036551;28;20047;-64
2023/11/12 00:45:01;;;;;;;7.88;5.18;;;7.00;99.90;;;;;;5051887;28;20029;-60
2023/11/12 00:47:28;;;;;;;7.90;5.90;;;7.00;99.90;;;;;;5049184;28;20395;-63
2023/11/12 00:49:55;;;;;;;9.60;6.32;;;7.00;99.90;;;;;;5051650;28;20044;-61
2023/11/12 00:52:22;;;;;;;8.05;5.25;;;7.00;99.90;;;;;;5028093;28;20037;-61
2023/11/12 00:54:49;;;;;;;15.95;4.57;;;7.00;99.90;;;;;;5040951;28;20052;-64
2023/11/12 00:57:16;;;;;;;6.18;5.13;;;7.10;99.90;;;;;;5051397;28;20371;-62
2023/11/12 00:59:43;;;;;;;6.78;5.28;;;7.10;99.90;;;;;;5053173;28;20091;-69
2023/11/12 01:02:10;;;;;;;6.38;4.13;;;7.10;99.90;;;;;;5052566;28;20037;-60
2023/11/12 01:04:37;;;;;;;6.20;3.97;;;7.10;99.90;;;;;;5031033;28;20040;-60
2023/11/12 01:07:04;;;;;;;7.85;4.13;;;7.10;99.90;;;;;;5040280;28;20391;-59
2023/11/12 01:09:31;;;;;;;3.50;3.20;;;7.10;99.90;;;;;;5036446;28;20079;-62
2023/11/12 01:11:59;;;;;;;5.47;4.22;;;7.10;99.90;;;;;;5051203;28;20041;-60
2023/11/12 01:14:26;;;;;;;9.32;4.32;;;7.10;99.90;;;;;;5047860;28;20044;-61
2023/11/12 01:16:53;;;;;;;6.45;4.20;;;7.10;99.90;;;;;;5047361;28;20485;-62
2023/11/12 01:19:20;;;;;;;4.07;2.80;;;7.10;99.90;;;;;;5045699;28;20041;-62
2023/11/12 01:21:47;;;;;;;6.35;2.80;;;7.20;99.90;;;;;;5048648;28;20044;-63
2023/11/12 01:24:14;;;;;;;3.67;2.60;;;7.10;99.90;;;;;;5027118;28;20041;-63
2023/11/12 01:26:41;;;;;;;4.05;3.20;;;7.00;99.90;;;;;;5035717;28;20082;-65
2023/11/12 01:29:08;;;;;;;3.03;2.55;;;7.00;99.90;;;;;;5050173;28;20099;-60
2023/11/12 01:31:35;;;;;;;5.38;2.80;;;7.00;99.90;;;;;;5051294;28;20111;-61
2023/11/12 01:34:03;;;;;;;4.45;2.80;;;7.00;99.90;;;;;;5055866;28;20041;-60
2023/11/12 01:36:30;;;;;;;4.80;3.05;;;7.10;99.90;;;;;;5054140;28;20456;-62
2023/11/12 01:38:57;;;;;;;3.50;3.20;;;7.10;99.90;;;;;;5038631;28;20483;-71
2023/11/12 01:41:24;;;;;;;6.50;4.15;;;7.10;99.90;;;;;;5037196;28;20652;-60
2023/11/12 01:43:51;;;;;;;4.50;3.25;;;7.10;99.90;;;;;;5032669;28;20044;-59
2023/11/12 01:46:18;;;;;;;4.80;3.50;;;7.10;99.90;;;;;;5038319;28;20467;-63
2023/11/12 01:48:47;;;;;;;4.13;3.03;;;7.10;99.90;;;;;;5034943;28;20040;-60
2023/11/12 01:51:15;;;;;;;3.42;3.13;;;7.10;99.90;;;;;;5044825;28;20046;-63
2023/11/12 01:53:42;;;;;;;3.05;2.75;;;7.10;99.90;;;;;;5051073;28;20045;-61
2023/11/12 01:56:11;;;;;;;5.95;2.75;;;7.10;99.90;;;;;;5054577;28;20099;-61
2023/11/12 01:58:40;;;;;;;4.18;2.15;;;7.10;99.90;;;;;;5044391;28;20049;-61
2023/11/12 02:01:08;;;;;;;2.58;2.22;;;7.10;99.90;;;;;;5030994;28;20036;-61
2023/11/12 02:03:36;;;;;;;6.25;2.45;;;7.10;99.90;;;;;;5045742;28;20053;-60
2023/11/12 02:06:05;;;;;;;3.85;3.45;;;7.10;99.90;;;;;;5043722;28;20107;-61
2023/11/12 02:08:36;;;;;;;7.85;3.50;;;7.10;99.90;;;;;;5033475;28;20044;-64
2023/11/12 02:11:07;;;;;;;;;;;7.10;99.90;;;;;;5050728;28;20045;-59
2023/11/12 02:13:41;;;;;;;3.67;2.90;;;7.10;99.90;;;;;;5050622;28;20014;-60
2023/11/12 02:16:09;;;;;;;3.33;2.97;;;7.00;99.90;;;;;;5052029;28;20123;-69
2023/11/12 02:18:36;;;;;;;3.30;3.00;;;7.00;99.90;;;;;;5056243;28;20120;-61
2023/11/12 02:21:03;;;;;;;3.75;2.58;;;7.00;99.90;;;;;;5055978;28;20048;-60
2023/11/12 02:23:30;;;;;;;6.50;2.85;;;7.00;99.90;;;;;;5031010;28;20075;-60
2023/11/12 02:25:58;;;;;;;5.22;3.53;;;6.90;99.90;;;;;;5058335;28;20095;-60
2023/11/12 02:28:25;;;;;;;4.15;3.42;;;6.90;99.90;;;;;;5051216;28;20123;-62
2023/11/12 02:30:55;;;;;;;2.85;2.55;;;6.90;99.90;;;;;;5027749;28;20049;-60
2023/11/12 02:33:27;;;;;;;3.10;2.45;;;6.80;99.90;;;;;;5047791;28;20071;-63
2023/11/12 02:35:55;;;;;;;3.45;2.00;;;6.90;99.90;;;;;;5040406;28;20049;-62
2023/11/12 02:38:23;;;;;;;2.72;2.10;;;6.80;99.90;;;;;;5049329;28;20131;-65
2023/11/12 02:40:51;;;;;;;2.63;2.13;;;6.80;99.90;;;;;;5053326;28;20048;-61
2023/11/12 02:43:19;;;;;;;6.07;2.80;;;6.80;99.90;;;;;;5050979;28;20043;-64
2023/11/12 02:45:47;;;;;;;2.40;2.20;;;6.80;99.90;;;;;;5054114;28;20421;-60
2023/11/12 02:48:14;;;;;;;5.93;2.45;;;6.80;99.90;;;;;;5040521;28;20072;-61
2023/11/12 02:50:41;;;;;;;3.45;3.03;;;6.80;99.90;;;;;;5044548;28;20049;-70
2023/11/12 02:53:10;;;;;;;5.38;2.38;;;6.80;99.90;;;;;;5032441;28;20060;-61
2023/11/12 02:55:37;;;;;;;4.38;2.22;;;6.80;99.90;;;;;;5050859;28;20044;-59
2023/11/12 02:58:04;;;;;;;5.88;2.60;;;6.80;99.90;;;;;;5054605;28;20045;-60
2023/11/12 03:00:31;;;;;;;6.15;2.83;;;6.90;99.90;;;;;;5053941;28;20041;-60
2023/11/12 03:03:00;;;;;;;2.58;2.05;;;6.80;99.90;;;;;;5055845;28;20029;-60
2023/11/12 03:05:29;;;;;;;2.47;1.88;;;6.90;99.90;;;;;;5051790;28;20049;-60
2023/11/12 03:07:57;;;;;;;3.67;2.15;;;6.90;99.90;;;;;;5036055;28;20118;-60
2023/11/12 03:10:25;;;;;;;3.72;2.17;;;6.90;99.90;;;;;;5053750;28;20688;-62
2023/11/12 03:12:53;;;;;;;5.18;2.38;;;6.80;99.90;;;;;;5015686;28;20045;-60
2023/11/12 03:15:21;;;;;;;1.85;1.70;;;6.80;99.90;;;;;;5051549;28;20041;-60
2023/11/12 03:17:51;;;;;;;2.72;2.50;;;6.80;99.90;;;;;;5035507;28;20044;-61
2023/11/12 03:20:18;;;;;;;2.72;2.47;;;6.80;99.90;;;;;;5053967;28;20037;-62
2023/11/12 03:22:45;;;;;;;3.80;2.08;;;6.70;99.90;;;;;;5055816;28;20045;-61
2023/11/12 03:25:12;;;;;;;3.70;2.20;;;6.70;99.90;;;;;;5033810;28;20041;-60
2023/11/12 03:27:39;;;;;;;5.43;2.35;;;6.70;99.90;;;;;;5034868;28;20369;-61
2023/11/12 03:30:09;;;;;;;3.20;2.15;;;6.70;99.90;;;;;;5060274;28;20076;-62
2023/11/12 03:32:36;;;;;;;5.63;2.90;;;6.70;99.90;;;;;;5050634;28;20037;-61
2023/11/12 03:35:04;;;;;;;4.82;3.35;;;6.70;99.90;;;;;;5055692;28;20790;-62
2023/11/12 03:37:32;;;;;;;5.30;3.03;;;6.60;99.90;;;;;;5054151;28;20077;-60
2023/11/12 03:39:59;;;;;;;5.22;3.25;;;6.50;99.90;;;;;;5054438;28;20052;-67
2023/11/12 03:42:26;;;;;;;6.15;3.03;;;6.50;99.90;;;;;;5032492;28;20047;-60
2023/11/12 03:44:53;;;;;;;3.25;2.80;;;6.50;99.90;;;;;;5051335;28;20035;-61
2023/11/12 03:47:22;;;;;;;3.85;2.78;;;6.50;99.90;;;;;;5052933;28;20049;-61
2023/11/12 03:49:51;;;;;;;2.67;2.47;;;6.50;99.90;;;;;;5050597;28;20103;-63
2023/11/12 03:52:18;;;;;;;3.47;2.33;;;6.50;99.90;;;;;;5055137;28;20041;-61
2023/11/12 03:54:45;;;;;;;5.65;2.65;;;6.50;99.90;;;;;;5049924;28;20116;-60
2023/11/12 03:57:13;;;;;;;9.00;4.05;;;6.50;99.90;;;;;;5056716;28;20036;-60
2023/11/12 03:59:40;;;;;;;4.70;3.03;;;6.50;99.90;;;;;;5049934;28;20041;-61
2023/11/12 04:02:07;;;;;;;3.38;3.08;;;6.50;99.90;;;;;;5055553;28;20045;-64
2023/11/12 04:04:34;;;;;;;3.70;3.20;;;6.50;99.90;;;;;;5032740;28;20132;-62
2023/11/12 04:07:02;;;;;;;5.07;4.15;;;6.50;99.90;;;;;;5050758;28;20064;-60
2023/11/12 04:09:29;;;;;;;3.70;3.03;;;6.50;99.90;;;;;;5050733;28;20041;-63
2023/11/12 04:11:59;;;;;;;6.57;4.00;;;6.50;99.90;;;;;;5052612;28;20048;-60
2023/11/12 04:14:27;;;;;;;4.82;2.67;;;6.50;99.90;;;;;;5039963;28;20048;-60
2023/11/12 04:16:54;;;;;;;3.80;2.03;;;6.50;99.90;;;;;;5057160;28;20100;-64
2023/11/12 04:19:21;;;;;;;5.22;3.08;;;6.50;99.90;;;;;;5052641;28;20041;-64
2023/11/12 04:21:48;;;;;;;3.38;2.75;;;6.50;99.90;;;;;;5049690;28;20041;-60
2023/11/12 04:24:15;;;;;;;5.43;2.88;;;6.60;99.90;;;;;;5056672;28;20033;-60
2023/11/12 04:26:42;;;;;;;3.85;3.55;;;6.60;99.90;;;;;;5050065;28;20442;-60
2023/11/12 04:29:13;;;;;;;3.00;1.77;;;6.60;99.90;;;;;;5032508;28;20729;-61
2023/11/12 04:31:40;;;;;;;4.03;2.78;;;6.60;99.90;;;;;;5053218;28;20049;-60
2023/11/12 04:34:08;;;;;;;3.17;1.88;;;6.70;99.90;;;;;;5030373;28;20099;-60
2023/11/12 04:36:35;;;;;;;2.08;1.83;;;6.70;99.90;;;;;;5047241;28;20491;-64
2023/11/12 04:39:03;;;;;;;1.20;1.10;;;6.70;99.90;;;;;;5047788;28;20051;-61
2023/11/12 04:41:31;;;;;;;3.35;1.35;;;6.80;99.90;;;;;;5035040;28;20534;-61
2023/11/12 04:43:59;;;;;;;2.67;1.00;;;6.80;99.90;;;;;;5056483;28;20041;-61
2023/11/12 04:46:27;;;;;;;3.50;1.30;;;6.80;99.90;;;;;;5044021;28;20045;-60
2023/11/12 04:48:54;;;;;;;4.90;1.55;;;6.80;99.90;;;;;;5057310;28;20490;-63
2023/11/12 04:51:22;;;;;;;3.28;1.67;;;6.80;99.90;;;;;;5053071;28;20661;-62
2023/11/12 04:53:49;;;;;;;2.58;1.70;;;6.80;99.90;;;;;;5046146;28;20048;-60
2023/11/12 04:56:15;;;;;;;5.68;2.00;;;6.80;99.90;;;;;;5054668;28;20505;-61
2023/11/12 04:58:42;;;;;;;3.50;1.95;;;6.80;99.90;;;;;;5050824;28;20063;-61
2023/11/12 05:01:09;;;;;;;1.65;1.02;;;6.80;99.90;;;;;;5033619;28;20427;-62
2023/11/12 05:03:36;;;;;;;1.10;0.93;;;6.70;99.90;;;;;;5050085;28;20040;-60
2023/11/12 05:06:04;;;;;;;2.65;2.15;;;6.70;99.90;;;;;;5048257;28;20063;-60
2023/11/12 05:08:31;;;;;;;1.77;1.15;;;6.70;99.90;;;;;;5056604;28;20072;-60
2023/11/12 05:10:58;;;;;;;2.92;1.25;;;6.60;99.90;;;;;;5048173;28;20037;-62
2023/11/12 05:13:25;;;;;;;1.83;1.05;;;6.60;99.90;;;;;;5033195;28;20128;-61
2023/11/12 05:15:53;;;;;;;1.05;0.95;;;6.50;99.90;;;;;;5051288;28;20037;-63
2023/11/12 05:18:20;;;;;;;1.08;1.00;;;6.40;99.90;;;;;;5048762;28;20041;-61
2023/11/12 05:20:48;;;;;;;1.50;1.13;;;6.40;99.90;;;;;;5048607;28;20029;-60
2023/11/12 05:23:15;;;;;;;2.97;0.80;;;6.40;99.90;;;;;;5049570;28;20443;-60
2023/11/12 05:25:42;;;;;;;1.63;0.70;;;6.40;99.90;;;;;;5045240;28;20379;-60
2023/11/12 05:28:09;;;;;;;2.50;1.17;;;6.50;99.90;;;;;;5055915;28;20048;-60
2023/11/12 05:30:36;;;;;;;1.38;1.15;;;6.50;99.90;;;;;;5054274;28;20736;-60
2023/11/12 05:33:03;;;;;;;0.80;0.80;;;6.50;99.90;;;;;;5049541;28;20048;-62
2023/11/12 05:35:30;;;;;;;0.98;0.82;;;6.50;99.90;;;;;;5053734;28;20041;-60
2023/11/12 05:37:57;;;;;;;0.75;0.70;;;6.40;99.90;;;;;;5048421;28;20072;-61
2023/11/12 05:40:24;;;;;;;1.00;0.75;;;6.40;99.90;;;;;;5055136;28;20037;-60
2023/11/12 05:42:51;;;;;;;7.10;1.20;;;6.40;99.90;;;;;;5036002;28;20407;-60
2023/11/12 05:45:19;;;;;;;0.75;0.70;;;6.50;99.90;;;;;;5049629;28;20056;-66
2023/11/12 05:47:46;;;;;;;0.95;0.93;;;6.50;99.90;;;;;;5051914;28;20045;-62
2023/11/12 05:50:14;;;;;;;1.10;0.50;;;6.50;99.90;;;;;;5047360;28;20132;-61
2023/11/12 05:52:42;;;;;;;1.25;0.98;;;6.50;99.90;;;;;;5054693;28;20040;-60
2023/11/12 05:55:13;;;;;;;1.90;0.95;;;6.50;99.90;;;;;;5049766;28;20048;-60
2023/11/12 05:57:41;;;;;;;1.65;0.93;;;6.60;99.90;;;;;;5050746;28;20037;-64
2023/11/12 06:00:10;;;;;;;1.92;0.80;;;6.60;99.90;;;;;;5051867;28;20039;-59
2023/11/12 06:02:38;;;;;;;2.80;0.77;;;6.60;99.90;;;;;;5048582;28;20049;-63
2023/11/12 06:05:06;;;;;;;0.77;0.77;;;6.70;99.90;;;;;;5053545;28;20122;-60
2023/11/12 06:07:33;;;;;;;1.60;0.85;;;6.70;99.90;;;;;;5044205;28;20490;-61
2023/11/12 06:10:00;;;;;;;2.53;1.27;;;6.80;99.90;;;;;;5053629;28;20045;-60
2023/11/12 06:12:27;;;;;;;4.30;1.27;;;6.80;99.90;;;;;;5049864;28;20391;-59
2023/11/12 06:14:54;;;;;;;2.22;1.10;;;6.90;99.90;;;;;;5048870;28;20449;-61
2023/11/12 06:17:21;;;;;;;2.17;0.93;;;6.90;99.90;;;;;;5048161;28;20057;-63
2023/11/12 06:19:48;;;;;;;3.50;1.20;;;6.90;99.90;;;;;;5054141;28;20044;-60
2023/11/12 06:22:15;;;;;;;3.28;0.73;;;6.90;99.90;;;;;;5050352;28;20387;-60
2023/11/12 06:24:42;;;;;;;2.35;0.80;;;6.90;99.90;;;;;;5050463;28;20048;-61
2023/11/12 06:27:10;;;;;;;1.20;0.70;;;6.80;99.90;;;;;;5055473;28;20393;-61
2023/11/12 06:29:38;;;;;;;2.58;0.80;;;6.80;99.90;;;;;;5052908;28;20135;-59
2023/11/12 06:32:06;;;;;;;2.15;1.33;;;6.80;99.90;;;;;;5057128;28;20057;-63
2023/11/12 06:34:34;;;;;;;2.38;1.17;;;6.90;99.90;;;;;;5052378;28;20048;-66
2023/11/12 06:37:03;;;;;;;9.20;3.42;;;6.90;99.90;;;;;;5051458;28;20111;-61
2023/11/12 06:39:30;;;;;;;0.77;0.77;;;6.90;99.90;;;;;;5052467;28;20064;-60
2023/11/12 06:41:58;;;;;;;2.28;1.15;;;7.00;99.90;;;;;;5054179;28;20417;-60
2023/11/12 06:44:25;;;;;;;3.25;1.42;;;7.00;99.90;;;;;;5063504;28;20037;-60
2023/11/12 06:46:52;;;;;;;4.05;1.10;;;7.00;99.90;;;;;;5051854;28;20049;-60
2023/11/12 06:49:19;;;;;;;3.10;1.70;;;7.00;99.90;;;;;;5048025;28;20403;-62
2023/11/12 06:51:46;;;;;;;2.45;1.23;;;7.10;99.90;;;;;;5054572;28;20566;-61
2023/11/12 06:54:13;;;;;;;1.75;1.48;;;7.20;99.90;;;;;;5052444;28;20033;-60
2023/11/12 06:56:40;;;;;;;4.80;1.92;;;7.20;99.90;;;;;;5057241;28;20043;-61
2023/11/12 06:59:07;;;;;;;1.95;1.27;;;7.20;99.90;;;;;;5057984;28;20037;-63
2023/11/12 07:01:35;;;;;;;3.90;1.63;;;7.20;99.90;;;;;;5050195;28;20040;-60
2023/11/12 07:04:04;;;;;;;4.05;1.40;;;7.30;99.90;;;;;;5053003;28;20044;-63
2023/11/12 07:06:31;;;;;;;1.45;1.23;;;7.30;99.90;;;;;;5053667;28;20049;-59
2023/11/12 07:08:58;;;;;;;7.63;3.58;;;7.30;99.90;;;;;;5050347;28;20041;-60
2023/11/12 07:11:25;;;;;;;3.92;1.98;;;7.30;99.90;;;;;;5050649;28;20052;-61
2023/11/12 07:13:52;;;;;;;4.10;1.60;;;7.40;99.90;;;;;;5049107;28;20052;-61
2023/11/12 07:16:20;;;;;;;2.92;1.65;;;7.40;99.90;;;;;;5050547;28;20049;-62
2023/11/12 07:18:47;;;;;;;6.15;1.75;;;7.40;99.90;;;;;;5054842;28;20060;-62
2023/11/12 07:21:31;;;;;;;3.85;1.63;;;7.40;99.90;;;;;;5051083;28;20183;-64
2023/11/12 07:23:59;;;;;;;6.32;2.85;;;7.40;99.90;;;;;;5059175;28;20051;-65
2023/11/12 07:26:27;;;;;;;6.93;2.10;;;7.40;99.90;;;;;;5050052;28;20040;-61
2023/11/12 07:28:54;;;;;;;3.80;2.08;;;7.40;99.90;;;;;;5052186;28;20037;-61
2023/11/12 07:31:23;;;;;;;6.88;2.67;;;7.50;99.90;;;;;;5055048;28;20531;-64
2023/11/12 07:33:51;;;;;;;6.00;3.30;;;7.40;99.90;;;;;;5053084;28;20091;-61
2023/11/12 07:36:20;;;;;;;11.63;3.28;;;7.50;99.90;;;;;;5051455;28;20041;-61
2023/11/12 07:38:47;;;;;;;6.53;2.45;;;7.50;99.90;;;;;;5056452;28;20048;-60
2023/11/12 07:41:14;;;;;;;4.95;2.72;;;7.40;99.90;;;;;;5054119;28;20399;-61
2023/11/12 07:43:41;;;;;;;3.13;2.47;;;7.40;99.90;;;;;;5056536;28;20045;-61
2023/11/12 07:46:08;;;;;;;2.95;2.55;;;7.40;99.90;;;;;;5050693;28;20033;-60
2023/11/12 07:48:37;;;;;;;5.60;3.05;;;7.40;99.90;;;;;;5050940;28;20057;-61
2023/11/12 07:51:04;;;;;;;6.60;3.17;;;7.40;99.90;;;;;;5049313;28;20098;-61
2023/11/12 07:53:31;;;;;;;4.57;2.47;;;7.40;99.90;;;;;;5046288;28;20048;-65
2023/11/12 07:55:58;;;;;;;8.77;2.42;;;7.30;99.90;;;;;;5050996;28;20048;-61
2023/11/12 07:58:25;;;;;;;4.07;2.95;;;7.40;99.90;;;;;;5052494;28;20128;-59
2023/11/12 08:00:52;;;;;;;3.72;1.85;;;7.30;99.90;;;;;;5049236;28;20415;-60
2023/11/12 08:03:19;;;;;;;3.30;1.88;;;7.30;99.90;;;;;;5050821;28;20125;-63
2023/11/12 08:05:49;;;;;;;4.40;2.58;;;7.30;99.90;;;;;;5047789;28;20142;-60
2023/11/12 08:08:16;;;;;;;8.50;2.10;;;7.30;99.90;;;;;;5053446;28;20051;-61
2023/11/12 08:10:43;;;;;;;2.55;2.10;;;7.20;99.90;;;;;;5058705;28;20040;-62
2023/11/12 08:13:10;;;;;;;6.85;2.35;;;7.30;99.90;;;;;;5050617;28;20080;-61
2023/11/12 08:15:37;;;;;;;2.20;2.00;;;7.20;99.90;;;;;;5050548;28;20052;-64
2023/11/12 08:18:05;;;;;;;4.43;2.25;;;7.20;99.90;;;;;;5050868;28;20044;-60
2023/11/12 08:20:34;;;;;;;3.38;1.95;;;7.20;99.90;;;;;;5054009;28;20536;-59
2023/11/12 08:23:02;;;;;;;5.10;2.22;;;7.20;99.90;;;;;;5050102;28;20040;-60
2023/11/12 08:25:29;;;;;;;7.30;2.40;;;7.20;99.90;;;;;;5049942;28;20037;-60
2023/11/12 08:27:58;;;;;;;7.78;3.03;;;7.10;99.90;;;;;;5052394;28;20105;-65
2023/11/12 08:30:25;;;;;;;3.50;2.42;;;7.20;99.90;;;;;;5051495;28;20491;-61
2023/11/12 08:32:52;;;;;;;6.93;2.58;;;7.10;99.90;;;;;;5054151;28;20041;-60
2023/11/12 08:35:19;;;;;;;2.50;2.05;;;7.10;99.90;;;;;;5053319;28;20123;-62
2023/11/12 08:37:46;;;;;;;4.05;2.25;;;7.10;99.90;;;;;;5048559;28;20064;-61
2023/11/12 08:40:15;;;;;;;4.38;1.92;;;7.10;99.90;;;;;;5053245;28;20092;-60
2023/11/12 08:42:46;;;;;;;2.95;1.98;;;7.10;99.90;;;;;;5056197;28;20434;-60
2023/11/12 08:45:14;;;;;;;4.10;1.50;;;7.10;99.90;;;;;;5049308;28;20056;-61
2023/11/12 08:47:41;;;;;;;7.05;1.63;;;7.10;99.90;;;;;;5053959;28;20060;-60
2023/11/12 08:50:09;;;;;;;2.63;1.20;;;7.20;99.90;;;;;;5049382;28;20064;-61
2023/11/12 08:52:37;;;;;;;1.00;0.90;;;7.20;99.90;;;;;;5055293;28;20043;-60
2023/11/12 08:55:06;;;;;;;1.90;1.20;;;7.30;99.90;;;;;;5032801;28;20412;-61
2023/11/12 08:57:34;;;;;;;1.92;1.08;;;7.30;99.90;;;;;;5056071;28;20438;-60
2023/11/12 09:00:06;;;;;;;2.15;0.88;;;7.30;99.90;;;;;;5047788;28;20091;-60
2023/11/12 09:02:33;;;;;;;1.58;1.13;;;7.40;99.90;;;;;;5052882;28;20048;-61
2023/11/12 09:05:01;;;;;;;1.65;1.20;;;7.40;99.90;;;;;;5047784;28;20034;-59
2023/11/12 09:07:29;;;;;;;2.40;1.60;;;7.40;99.90;;;;;;5020229;28;20169;-63
2023/11/12 09:09:56;;;;;;;8.20;1.50;;;7.50;99.90;;;;;;5025644;28;20048;-60
2023/11/12 09:12:23;;;;;;;1.38;0.93;;;7.50;99.90;;;;;;5036050;28;20072;-61
2023/11/12 09:14:50;;;;;;;2.63;1.83;;;7.40;99.90;;;;;;5027853;28;20049;-60
2023/11/12 09:17:17;;;;;;;2.67;1.73;;;7.40;99.90;;;;;;5027749;28;20381;-63
2023/11/12 09:19:45;;;;;;;5.40;1.52;;;7.40;99.90;;;;;;5033921;28;20109;-63
2023/11/12 09:22:12;;;;;;;3.92;1.10;;;7.40;99.90;;;;;;5033556;28;20037;-60
2023/11/12 09:24:44;;;;;;;1.55;1.08;;;7.40;99.90;;;;;;5031064;28;20041;-61
2023/11/12 09:27:30;;;;;;;2.28;1.50;;;7.40;99.90;;;;;;5032050;28;20631;-61
2023/11/12 09:29:57;;;;;;;2.80;1.00;;;7.40;99.90;;;;;;5026879;28;20160;-61
2023/11/12 09:32:24;;;;;;;1.73;0.95;;;7.40;99.90;;;;;;5030077;28;20045;-66
2023/11/12 09:34:51;;;;;;;3.33;1.23;;;7.40;99.90;;;;;;5033814;28;20495;-62
2023/11/12 09:37:18;;;;;;;3.83;1.13;;;7.40;99.90;;;;;;5029431;28;20479;-61
2023/11/12 09:39:45;;;;;;;9.88;2.60;;;7.40;99.90;;;;;;5032498;28;20042;-62
2023/11/12 09:42:15;;;;;;;4.38;1.20;;;7.50;99.90;;;;;;5027485;28;20030;-63
2023/11/12 09:44:43;;;;;;;2.42;1.25;;;7.60;99.90;;;;;;5032098;28;20376;-60
2023/11/12 09:47:29;;;;;;;1.48;1.08;;;7.60;99.90;;;;;;5027466;28;20037;-60
2023/11/12 09:49:57;;;;;;;2.15;0.70;;;7.70;99.90;;;;;;5024247;28;20042;-60
2023/11/12 09:52:25;;;;;;;3.10;0.98;;;7.60;99.90;;;;;;5029439;28;20038;-61
2023/11/12 09:54:53;;;;;;;3.83;2.53;;;7.70;99.90;;;;;;5034538;28;20041;-62
2023/11/12 09:57:20;;;;;;;1.45;0.70;;;7.60;99.90;;;;;;5032989;28;20391;-64
2023/11/12 09:59:48;;;;;;;4.18;1.55;;;7.70;99.90;;;;;;5028984;28;20396;-62
2023/11/12 10:02:15;;;;;;;3.83;1.42;;;7.70;99.90;;;;;;5037511;28;20077;-61
2023/11/12 10:04:42;;;;;;;2.55;1.85;;;7.70;99.90;;;;;;5033726;28;20104;-61
2023/11/12 10:16:26;;;;;;;2.58;0.82;;;7.70;99.90;;;;;;5029076;28;20032;-59
2023/11/12 10:18:53;;;;;;;4.33;1.10;;;7.60;99.90;;;;;;5025030;28;20131;-61
2023/11/12 10:21:21;;;;;;;0.95;0.77;;;7.60;99.90;;;;;;5037954;28;20340;-62
2023/11/12 10:24:06;;;;;;;2.75;0.80;;;7.50;99.90;;;;;;5032459;28;20054;-64
2023/11/12 10:26:35;;;;;;;1.27;0.95;;;7.50;99.90;;;;;;5036751;28;20439;-61
2023/11/12 10:29:02;;;;;;;1.02;0.88;;;7.50;99.90;;;;;;5028919;28;20056;-60
2023/11/12 10:31:37;;;;;;;4.18;1.00;;;7.50;99.90;;;;;;5038543;28;20065;-61
2023/11/12 10:34:04;;;;;;;3.80;1.38;;;7.40;99.90;;;;;;5031487;28;20073;-61
2023/11/12 10:36:31;;;;;;;1.92;1.08;;;7.40;99.90;;;;;;5037625;28;20431;-60
2023/11/12 10:39:09;;;;;;;0.60;0.57;;;7.40;99.90;;;;;;5034879;28;20125;-61
2023/11/12 10:41:37;;;;;;;3.60;0.90;;;7.40;99.90;;;;;;5031178;28;20069;-62
2023/11/12 10:44:06;;;;;;;1.15;1.00;;;7.40;99.90;;;;;;5034320;28;20041;-64
2023/11/12 10:46:38;;;;;;;1.38;0.93;;;7.30;99.90;;;;;;5035731;28;20052;-60
2023/11/12 10:49:08;;;;;;;2.70;0.65;;;7.30;99.90;;;;;;5034013;28;20076;-61
2023/11/12 10:51:39;;;;;;;2.30;0.95;;;7.30;99.90;;;;;;5036181;28;20121;-60
2023/11/12 10:54:07;;;;;;;5.47;1.98;;;7.30;99.90;;;;;;5035563;28;20045;-62
2023/11/12 10:56:35;;;;;;;4.95;0.73;;;7.30;99.90;;;;;;5031475;28;20100;-60
2023/11/12 10:59:03;;;;;;;4.18;1.08;;;7.30;99.90;;;;;;5036023;28;20064;-60
2023/11/12 11:01:34;;;;;;;2.10;1.10;;;7.20;99.90;;;;;;5031251;28;20045;-63
2023/11/12 11:04:03;;;;;;;2.00;0.80;;;7.20;99.90;;;;;;5031198;28;20384;-62
2023/11/12 11:06:31;;;;;;;3.58;0.68;;;7.20;99.90;;;;;;5043914;28;20357;-61
2023/11/12 11:08:58;;;;;;;0.77;0.65;;;7.10;99.90;;;;;;5035079;28;20406;-64
2023/11/12 11:11:25;;;;;;;1.05;0.50;;;7.10;99.90;;;;;;5058825;28;20049;-60
2023/11/12 11:13:52;;;;;;;1.30;1.10;;;7.10;99.90;;;;;;5047209;28;20072;-62
2023/11/12 11:16:46;;;;;;;3.22;0.77;;;7.10;99.90;;;;;;5050811;28;20099;-60
2023/11/12 11:19:13;;;;;;;2.38;0.88;;;7.00;99.90;;;;;;5048154;28;20041;-66
2023/11/12 11:21:40;;;;;;;8.68;1.30;;;7.00;99.90;;;;;;5047765;28;20114;-61
2023/11/12 11:24:09;;;;;;;1.80;0.57;;;7.00;99.90;;;;;;5058277;28;20029;-61
2023/11/12 11:26:38;;;;;;;1.98;0.80;;;6.90;99.90;;;;;;5052165;28;20391;-60
2023/11/12 11:29:07;;;;;;;;;;;6.80;99.90;;;;;;5054768;28;20102;-62
2023/11/12 11:31:47;;;;;;;1.67;0.68;;;6.80;99.90;;;;;;5052119;28;20496;-61
2023/11/12 11:34:16;;;;;;;0.95;0.77;;;6.90;99.90;;;;;;5049918;28;20037;-63
2023/11/12 11:36:59;;;;;;;2.17;1.20;;;6.90;99.90;;;;;;5056467;28;20075;-61
2023/11/12 11:39:28;;;;;;;2.08;1.08;;;6.90;99.90;;;;;;5049900;28;20040;-65
2023/11/12 11:41:55;;;;;;;1.25;1.17;;;6.80;99.90;;;;;;5052979;28;20033;-63
2023/11/12 11:44:31;;;;;;;5.22;0.63;;;6.70;99.90;;;;;;5058312;28;20048;-61
2023/11/12 11:47:05;;;;;;;1.63;0.95;;;6.70;99.90;;;;;;5055121;28;20045;-61
2023/11/12 11:49:32;;;;;;;0.90;0.88;;;6.60;99.90;;;;;;5059820;28;20040;-60
2023/11/12 11:52:00;;;;;;;1.67;0.90;;;6.60;99.90;;;;;;5039776;28;20049;-60
2023/11/12 11:54:30;;;;;;;3.15;0.90;;;6.70;99.90;;;;;;5053498;28;20044;-62
2023/11/12 11:56:58;;;;;;;;;;;6.60;99.90;;;;;;5048042;28;20047;-61
2023/11/12 11:59:25;;;;;;;1.65;1.23;;;6.70;99.90;;;;;;5052336;28;19920;-64
2023/11/12 12:01:59;;;;;;;0.73;0.65;;;6.60;99.90;;;;;;5047568;28;20061;-59
2023/11/12 12:04:27;;;;;;;1.73;0.82;;;6.60;99.90;;;;;;5054511;28;20033;-61
2023/11/12 12:06:55;;;;;;;0.52;0.52;;;6.50;99.90;;;;;;5033985;28;20049;-61
2023/11/12 12:09:23;;;;;;;0.93;0.80;;;6.50;99.90;;;;;;5028827;28;20041;-64
2023/11/12 12:11:52;;;;;;;1.88;0.70;;;6.40;99.90;;;;;;5035581;28;20107;-60
2023/11/12 12:14:26;;;;;;;0.88;0.88;;;6.40;99.90;;;;;;5029810;28;20103;-60
2023/11/12 12:16:54;;;;;;;1.25;0.90;;;6.40;99.90;;;;;;5030725;28;20080;-60
2023/11/12 12:19:22;;;;;;;2.38;0.75;;;6.40;99.90;;;;;;5029098;28;20128;-61
2023/11/12 12:21:50;;;;;;;2.00;0.80;;;6.50;99.90;;;;;;5033474;28;20069;-64
2023/11/12 12:24:21;;;;;;;5.05;0.57;;;6.40;99.90;;;;;;5037895;28;20042;-60
2023/11/12 12:26:48;;;;;;;2.88;1.08;;;6.40;99.90;;;;;;5037561;28;20038;-63
2023/11/12 12:29:22;;;;;;;2.25;0.73;;;6.40;99.90;;;;;;5028694;28;20434;-60
2023/11/12 12:31:51;;;;;;;1.38;0.80;;;6.40;99.90;;;;;;5034861;28;20045;-63
2023/11/12 12:34:20;;;;;;;1.33;0.68;;;6.30;99.90;;;;;;5030501;28;20097;-60
2023/11/12 12:37:18;;;;;;;3.45;0.77;;;6.30;99.90;;;;;;5036223;28;20345;-60
2023/11/12 12:39:57;;;;;;;1.13;0.90;;;6.20;99.90;;;;;;5031983;28;20132;-61
2023/11/12 12:42:28;;;;;;;2.22;0.90;;;6.20;99.90;;;;;;5031024;28;20112;-62
2023/11/12 12:44:59;;;;;;;0.65;0.65;;;6.20;99.90;;;;;;5032177;28;20463;-63
2023/11/12 12:47:41;;;;;;;1.38;0.93;;;6.20;99.90;;;;;;5027191;28;20441;-60
2023/11/12 12:50:25;;;;;;;2.25;0.85;;;6.20;99.90;;;;;;5028300;28;20604;-61
2023/11/12 12:53:20;;;;;;;1.30;0.88;;;6.20;99.90;;;;;;5032007;28;20038;-60
2023/11/12 12:55:48;;;;;;;0.75;0.52;;;6.10;99.90;;;;;;5036881;28;20045;-59
2023/11/12 12:58:15;;;;;;;1.83;0.60;;;6.10;99.90;;;;;;5018097;28;20406;-61
2023/11/12 13:00:43;;;;;;;1.98;0.80;;;6.10;99.90;;;;;;5030840;28;20041;-61
2023/11/12 13:03:30;;;;;;;0.70;0.50;;;6.10;99.90;;;;;;5033852;28;20048;-59
2023/11/12 13:05:58;;;;;;;0.65;0.65;;;6.00;99.90;;;;;;5034688;28;20053;-63
2023/11/12 13:08:25;;;;;;;1.20;0.98;;;6.00;99.90;;;;;;5052557;28;20404;-60
2023/11/12 13:10:54;;;;;;;3.88;0.80;;;6.00;99.90;;;;;;5044410;28;20048;-60
2023/11/12 13:13:21;;;;;;;1.55;1.45;;;6.00;99.90;;;;;;5047076;28;20048;-62